sensor_id;sensor_type;location;lat;lon;timestamp;temperature;humidity
59128;DHT22;44912;52.754;5.994;2022-09-09T00:01:28;15.80;99.90
59128;DHT22;44912;52.754;5.994;2022-09-09T00:04:00;15.70;99.90
59128;DHT22;44912;52.754;5.994;2022-09-09T00:06:35;15.70;99.90
59128;DHT22;44912;52.754;5.994;2022-09-09T00:09:21;15.70;99.90
59128;DHT22;44912;52.754;5.994;2022-09-09T00:11:57;15.70;99.90
59128;DHT22;44912;52.754;5.994;2022-09-09T00:14:41;15.70;99.90
59128;DHT22;44912;52.754;5.994;2022-09-09T00:17:25;15.70;99.90
59128;DHT22;44912;52.754;5.994;2022-09-09T00:25:42;15.70;99.90
59128;DHT22;44912;52.754;5.994;2022-09-09T00:28:20;15.80;99.90
59128;DHT22;44912;52.754;5.994;2022-09-09T00:30:48;15.80;99.90
59128;DHT22;44912;52.754;5.994;2022-09-09T00:33:16;15.80;99.90
59128;DHT22;44912;52.754;5.994;2022-09-09T00:36:12;15.80;99.90
59128;DHT22;44912;52.754;5.994;2022-09-09T00:38:57;15.80;99.90
59128;DHT22;44912;52.754;5.994;2022-09-09T00:44:20;15.90;99.90
59128;DHT22;44912;52.754;5.994;2022-09-09T00:47:20;15.80;99.90
59128;DHT22;44912;52.754;5.994;2022-09-09T00:55:20;15.80;99.90
59128;DHT22;44912;52.754;5.994;2022-09-09T00:57:51;15.80;99.90
59128;DHT22;44912;52.754;5.994;2022-09-09T01:00:29;15.80;99.90
59128;DHT22;44912;52.754;5.994;2022-09-09T01:03:26;15.90;99.90
59128;DHT22;44912;52.754;5.994;2022-09-09T01:09:33;15.90;99.90
59128;DHT22;44912;52.754;5.994;2022-09-09T01:12:15;15.90;99.90
59128;DHT22;44912;52.754;5.994;2022-09-09T01:14:49;15.90;99.90
59128;DHT22;44912;52.754;5.994;2022-09-09T01:22:41;16.00;99.90
59128;DHT22;44912;52.754;5.994;2022-09-09T01:28:06;16.00;99.90
59128;DHT22;44912;52.754;5.994;2022-09-09T01:30:37;16.00;99.90
59128;DHT22;44912;52.754;5.994;2022-09-09T01:33:03;16.00;99.90
59128;DHT22;44912;52.754;5.994;2022-09-09T01:35:43;16.00;99.90
59128;DHT22;44912;52.754;5.994;2022-09-09T01:38:12;16.00;99.90
59128;DHT22;44912;52.754;5.994;2022-09-09T01:40:39;15.90;99.90
59128;DHT22;44912;52.754;5.994;2022-09-09T01:43:05;16.00;99.90
59128;DHT22;44912;52.754;5.994;2022-09-09T01:45:31;16.00;99.90
59128;DHT22;44912;52.754;5.994;2022-09-09T01:47:58;16.00;99.90
59128;DHT22;44912;52.754;5.994;2022-09-09T01:50:24;16.00;99.90
59128;DHT22;44912;52.754;5.994;2022-09-09T01:52:52;16.00;99.90
59128;DHT22;44912;52.754;5.994;2022-09-09T01:55:33;16.00;99.90
59128;DHT22;44912;52.754;5.994;2022-09-09T01:58:32;16.00;99.90
59128;DHT22;44912;52.754;5.994;2022-09-09T02:01:13;16.00;99.90
59128;DHT22;44912;52.754;5.994;2022-09-09T02:03:47;16.00;99.90
59128;DHT22;44912;52.754;5.994;2022-09-09T02:06:36;16.00;99.90
59128;DHT22;44912;52.754;5.994;2022-09-09T02:09:05;16.10;99.90
59128;DHT22;44912;52.754;5.994;2022-09-09T02:11:32;16.00;99.90
59128;DHT22;44912;52.754;5.994;2022-09-09T02:16:32;16.00;99.90
59128;DHT22;44912;52.754;5.994;2022-09-09T02:19:10;16.00;99.90
59128;DHT22;44912;52.754;5.994;2022-09-09T02:21:38;16.00;99.90
59128;DHT22;44912;52.754;5.994;2022-09-09T02:24:07;16.00;99.90
59128;DHT22;44912;52.754;5.994;2022-09-09T02:26:39;16.00;99.90
59128;DHT22;44912;52.754;5.994;2022-09-09T02:29:09;16.10;99.90
59128;DHT22;44912;52.754;5.994;2022-09-09T02:31:36;16.10;99.90
59128;DHT22;44912;52.754;5.994;2022-09-09T02:34:05;16.10;99.90
59128;DHT22;44912;52.754;5.994;2022-09-09T02:36:33;16.10;99.90
59128;DHT22;44912;52.754;5.994;2022-09-09T02:39:00;16.20;99.90
59128;DHT22;44912;52.754;5.994;2022-09-09T02:41:35;16.10;99.90
59128;DHT22;44912;52.754;5.994;2022-09-09T02:44:02;16.20;99.90
59128;DHT22;44912;52.754;5.994;2022-09-09T02:47:00;16.10;99.90
59128;DHT22;44912;52.754;5.994;2022-09-09T02:52:27;16.20;99.90
59128;DHT22;44912;52.754;5.994;2022-09-09T02:55:01;16.20;99.90
59128;DHT22;44912;52.754;5.994;2022-09-09T02:57:31;16.20;99.90
59128;DHT22;44912;52.754;5.994;2022-09-09T02:59:58;16.20;99.90
59128;DHT22;44912;52.754;5.994;2022-09-09T03:02:24;16.20;99.90
59128;DHT22;44912;52.754;5.994;2022-09-09T03:04:50;16.20;99.90
59128;DHT22;44912;52.754;5.994;2022-09-09T03:07:18;16.10;99.90
59128;DHT22;44912;52.754;5.994;2022-09-09T03:09:44;16.20;99.90
59128;DHT22;44912;52.754;5.994;2022-09-09T03:12:10;16.10;99.90
59128;DHT22;44912;52.754;5.994;2022-09-09T03:14:36;16.10;99.90
59128;DHT22;44912;52.754;5.994;2022-09-09T03:17:04;16.10;99.90
59128;DHT22;44912;52.754;5.994;2022-09-09T03:19:30;16.10;99.90
59128;DHT22;44912;52.754;5.994;2022-09-09T03:21:55;16.00;99.90
59128;DHT22;44912;52.754;5.994;2022-09-09T03:24:21;16.00;99.90
59128;DHT22;44912;52.754;5.994;2022-09-09T03:26:48;16.00;99.90
59128;DHT22;44912;52.754;5.994;2022-09-09T03:29:14;16.00;99.90
59128;DHT22;44912;52.754;5.994;2022-09-09T03:31:40;15.90;99.90
59128;DHT22;44912;52.754;5.994;2022-09-09T03:34:06;15.90;99.90
59128;DHT22;44912;52.754;5.994;2022-09-09T03:36:31;15.90;99.90
59128;DHT22;44912;52.754;5.994;2022-09-09T03:38:57;15.90;99.90
59128;DHT22;44912;52.754;5.994;2022-09-09T03:41:24;15.80;99.90
59128;DHT22;44912;52.754;5.994;2022-09-09T03:43:53;15.80;99.90
59128;DHT22;44912;52.754;5.994;2022-09-09T03:46:24;15.80;99.90
59128;DHT22;44912;52.754;5.994;2022-09-09T03:48:50;15.80;99.90
59128;DHT22;44912;52.754;5.994;2022-09-09T03:51:18;15.80;99.90
59128;DHT22;44912;52.754;5.994;2022-09-09T03:53:43;15.80;99.90
59128;DHT22;44912;52.754;5.994;2022-09-09T03:56:09;15.80;99.90
59128;DHT22;44912;52.754;5.994;2022-09-09T03:58:38;15.80;99.90
59128;DHT22;44912;52.754;5.994;2022-09-09T04:01:09;15.80;99.90
59128;DHT22;44912;52.754;5.994;2022-09-09T04:03:35;15.80;99.90
59128;DHT22;44912;52.754;5.994;2022-09-09T04:06:02;15.70;99.90
59128;DHT22;44912;52.754;5.994;2022-09-09T04:08:29;15.70;99.90
59128;DHT22;44912;52.754;5.994;2022-09-09T04:10:56;15.70;99.90
59128;DHT22;44912;52.754;5.994;2022-09-09T04:13:24;15.70;99.90
59128;DHT22;44912;52.754;5.994;2022-09-09T04:15:55;15.70;99.90
59128;DHT22;44912;52.754;5.994;2022-09-09T04:18:21;15.70;99.90
59128;DHT22;44912;52.754;5.994;2022-09-09T04:20:51;15.70;99.90
59128;DHT22;44912;52.754;5.994;2022-09-09T04:23:18;15.60;99.90
59128;DHT22;44912;52.754;5.994;2022-09-09T04:25:50;15.70;99.90
59128;DHT22;44912;52.754;5.994;2022-09-09T04:28:17;15.60;99.90
59128;DHT22;44912;52.754;5.994;2022-09-09T04:30:43;15.60;99.90
59128;DHT22;44912;52.754;5.994;2022-09-09T04:33:10;15.50;99.90
59128;DHT22;44912;52.754;5.994;2022-09-09T04:35:36;15.50;99.90
59128;DHT22;44912;52.754;5.994;2022-09-09T04:38:02;15.60;99.90
59128;DHT22;44912;52.754;5.994;2022-09-09T04:40:29;15.50;99.90
59128;DHT22;44912;52.754;5.994;2022-09-09T04:42:57;15.50;99.90
59128;DHT22;44912;52.754;5.994;2022-09-09T04:45:23;15.50;99.90
59128;DHT22;44912;52.754;5.994;2022-09-09T04:47:48;15.50;99.90
59128;DHT22;44912;52.754;5.994;2022-09-09T04:50:14;15.50;99.90
59128;DHT22;44912;52.754;5.994;2022-09-09T04:52:41;15.40;99.90
59128;DHT22;44912;52.754;5.994;2022-09-09T04:55:07;15.40;99.90
59128;DHT22;44912;52.754;5.994;2022-09-09T04:57:34;15.40;99.90
59128;DHT22;44912;52.754;5.994;2022-09-09T04:59:59;15.40;99.90
59128;DHT22;44912;52.754;5.994;2022-09-09T05:02:26;15.40;99.90
59128;DHT22;44912;52.754;5.994;2022-09-09T05:04:51;15.40;99.90
59128;DHT22;44912;52.754;5.994;2022-09-09T05:07:17;15.40;99.90
59128;DHT22;44912;52.754;5.994;2022-09-09T05:09:42;15.40;99.90
59128;DHT22;44912;52.754;5.994;2022-09-09T05:12:29;15.40;99.90
59128;DHT22;44912;52.754;5.994;2022-09-09T05:14:55;15.40;99.90
59128;DHT22;44912;52.754;5.994;2022-09-09T05:17:20;15.40;99.90
59128;DHT22;44912;52.754;5.994;2022-09-09T05:19:46;15.30;99.90
59128;DHT22;44912;52.754;5.994;2022-09-09T05:22:12;15.40;99.90
59128;DHT22;44912;52.754;5.994;2022-09-09T05:24:37;15.30;99.90
59128;DHT22;44912;52.754;5.994;2022-09-09T05:27:04;15.40;99.90
59128;DHT22;44912;52.754;5.994;2022-09-09T05:29:30;15.40;99.90
59128;DHT22;44912;52.754;5.994;2022-09-09T05:31:59;15.30;99.90
59128;DHT22;44912;52.754;5.994;2022-09-09T05:34:24;15.40;99.90
59128;DHT22;44912;52.754;5.994;2022-09-09T05:36:50;15.40;99.90
59128;DHT22;44912;52.754;5.994;2022-09-09T05:39:17;15.40;99.90
59128;DHT22;44912;52.754;5.994;2022-09-09T05:41:43;15.40;99.90
59128;DHT22;44912;52.754;5.994;2022-09-09T05:44:09;15.40;99.90
59128;DHT22;44912;52.754;5.994;2022-09-09T05:46:34;15.50;99.90
59128;DHT22;44912;52.754;5.994;2022-09-09T05:49:00;15.50;99.90
59128;DHT22;44912;52.754;5.994;2022-09-09T05:51:28;15.40;99.90
59128;DHT22;44912;52.754;5.994;2022-09-09T05:53:55;15.40;99.90
59128;DHT22;44912;52.754;5.994;2022-09-09T05:56:25;15.40;99.90
59128;DHT22;44912;52.754;5.994;2022-09-09T05:58:52;15.40;99.90
59128;DHT22;44912;52.754;5.994;2022-09-09T06:01:30;15.50;99.90
59128;DHT22;44912;52.754;5.994;2022-09-09T06:03:56;15.50;99.90
59128;DHT22;44912;52.754;5.994;2022-09-09T06:06:24;15.50;99.90
59128;DHT22;44912;52.754;5.994;2022-09-09T06:08:52;15.50;99.90
59128;DHT22;44912;52.754;5.994;2022-09-09T06:11:23;15.50;99.90
59128;DHT22;44912;52.754;5.994;2022-09-09T06:13:50;15.60;99.90
59128;DHT22;44912;52.754;5.994;2022-09-09T06:16:21;15.60;99.90
59128;DHT22;44912;52.754;5.994;2022-09-09T06:18:49;15.70;99.90
59128;DHT22;44912;52.754;5.994;2022-09-09T06:21:20;15.70;99.90
59128;DHT22;44912;52.754;5.994;2022-09-09T06:23:46;15.80;99.90
59128;DHT22;44912;52.754;5.994;2022-09-09T06:26:18;15.80;99.90
59128;DHT22;44912;52.754;5.994;2022-09-09T06:28:45;15.80;99.90
59128;DHT22;44912;52.754;5.994;2022-09-09T06:31:12;15.80;99.90
59128;DHT22;44912;52.754;5.994;2022-09-09T06:33:40;15.80;99.90
59128;DHT22;44912;52.754;5.994;2022-09-09T06:36:23;15.80;99.90
59128;DHT22;44912;52.754;5.994;2022-09-09T06:38:49;15.90;99.90
59128;DHT22;44912;52.754;5.994;2022-09-09T06:41:17;15.90;99.90
59128;DHT22;44912;52.754;5.994;2022-09-09T06:43:44;15.90;99.90
59128;DHT22;44912;52.754;5.994;2022-09-09T06:46:12;15.90;99.90
59128;DHT22;44912;52.754;5.994;2022-09-09T06:48:40;16.00;99.90
59128;DHT22;44912;52.754;5.994;2022-09-09T06:53:41;16.10;99.90
59128;DHT22;44912;52.754;5.994;2022-09-09T06:58:40;16.30;99.90
59128;DHT22;44912;52.754;5.994;2022-09-09T07:01:11;16.40;99.90
59128;DHT22;44912;52.754;5.994;2022-09-09T07:03:38;16.50;99.90
59128;DHT22;44912;52.754;5.994;2022-09-09T07:06:04;16.60;99.90
59128;DHT22;44912;52.754;5.994;2022-09-09T07:08:30;16.70;99.90
59128;DHT22;44912;52.754;5.994;2022-09-09T07:11:03;16.70;99.90
59128;DHT22;44912;52.754;5.994;2022-09-09T07:13:30;16.80;99.90
59128;DHT22;44912;52.754;5.994;2022-09-09T07:16:06;16.90;99.90
59128;DHT22;44912;52.754;5.994;2022-09-09T07:18:33;17.00;99.90
59128;DHT22;44912;52.754;5.994;2022-09-09T07:20:59;17.00;99.90
59128;DHT22;44912;52.754;5.994;2022-09-09T07:23:24;17.00;99.90
59128;DHT22;44912;52.754;5.994;2022-09-09T07:25:51;17.00;99.90
59128;DHT22;44912;52.754;5.994;2022-09-09T07:28:18;17.00;99.90
59128;DHT22;44912;52.754;5.994;2022-09-09T07:30:55;17.00;99.90
59128;DHT22;44912;52.754;5.994;2022-09-09T07:33:21;17.10;99.90
59128;DHT22;44912;52.754;5.994;2022-09-09T07:35:47;17.10;99.90
59128;DHT22;44912;52.754;5.994;2022-09-09T07:38:13;17.20;99.90
59128;DHT22;44912;52.754;5.994;2022-09-09T07:40:40;17.30;99.90
59128;DHT22;44912;52.754;5.994;2022-09-09T07:43:05;17.40;99.90
59128;DHT22;44912;52.754;5.994;2022-09-09T07:45:31;17.40;99.90
59128;DHT22;44912;52.754;5.994;2022-09-09T07:47:58;17.40;99.90
59128;DHT22;44912;52.754;5.994;2022-09-09T07:50:24;17.40;99.90
59128;DHT22;44912;52.754;5.994;2022-09-09T07:52:53;17.40;99.90
59128;DHT22;44912;52.754;5.994;2022-09-09T07:55:22;17.50;99.90
59128;DHT22;44912;52.754;5.994;2022-09-09T07:57:51;17.50;99.90
59128;DHT22;44912;52.754;5.994;2022-09-09T08:00:17;17.60;99.90
59128;DHT22;44912;52.754;5.994;2022-09-09T08:02:44;17.60;99.90
59128;DHT22;44912;52.754;5.994;2022-09-09T08:05:11;17.70;99.90
59128;DHT22;44912;52.754;5.994;2022-09-09T08:07:38;17.80;99.90
59128;DHT22;44912;52.754;5.994;2022-09-09T08:10:04;17.90;99.90
59128;DHT22;44912;52.754;5.994;2022-09-09T08:12:29;17.90;99.90
59128;DHT22;44912;52.754;5.994;2022-09-09T08:14:55;17.90;99.90
59128;DHT22;44912;52.754;5.994;2022-09-09T08:17:21;17.90;99.90
59128;DHT22;44912;52.754;5.994;2022-09-09T08:19:46;17.90;99.90
59128;DHT22;44912;52.754;5.994;2022-09-09T08:22:12;17.90;99.90
59128;DHT22;44912;52.754;5.994;2022-09-09T08:24:38;17.90;99.90
59128;DHT22;44912;52.754;5.994;2022-09-09T08:27:03;18.00;99.90
59128;DHT22;44912;52.754;5.994;2022-09-09T08:29:29;18.00;99.90
59128;DHT22;44912;52.754;5.994;2022-09-09T08:31:56;18.10;99.90
59128;DHT22;44912;52.754;5.994;2022-09-09T08:34:23;18.10;99.90
59128;DHT22;44912;52.754;5.994;2022-09-09T08:36:51;18.10;99.90
59128;DHT22;44912;52.754;5.994;2022-09-09T08:39:19;18.20;99.90
59128;DHT22;44912;52.754;5.994;2022-09-09T08:41:57;18.20;99.90
59128;DHT22;44912;52.754;5.994;2022-09-09T08:50:02;18.40;99.90
59128;DHT22;44912;52.754;5.994;2022-09-09T08:52:36;18.50;99.90
59128;DHT22;44912;52.754;5.994;2022-09-09T08:55:24;18.50;99.90
59128;DHT22;44912;52.754;5.994;2022-09-09T08:57:53;18.50;99.90
59128;DHT22;44912;52.754;5.994;2022-09-09T09:00:20;18.60;99.90
59128;DHT22;44912;52.754;5.994;2022-09-09T09:03:05;18.50;99.90
59128;DHT22;44912;52.754;5.994;2022-09-09T09:05:42;18.50;99.90
59128;DHT22;44912;52.754;5.994;2022-09-09T09:08:30;18.60;99.90
59128;DHT22;44912;52.754;5.994;2022-09-09T09:10:58;18.60;99.90
59128;DHT22;44912;52.754;5.994;2022-09-09T09:13:50;18.70;99.90
59128;DHT22;44912;52.754;5.994;2022-09-09T09:16:29;18.70;99.90
59128;DHT22;44912;52.754;5.994;2022-09-09T09:18:58;18.70;99.90
59128;DHT22;44912;52.754;5.994;2022-09-09T09:24:01;18.60;99.90
59128;DHT22;44912;52.754;5.994;2022-09-09T09:26:33;18.70;99.90
59128;DHT22;44912;52.754;5.994;2022-09-09T09:29:11;18.70;99.90
59128;DHT22;44912;52.754;5.994;2022-09-09T09:31:38;18.80;99.90
59128;DHT22;44912;52.754;5.994;2022-09-09T09:34:03;18.80;99.90
59128;DHT22;44912;52.754;5.994;2022-09-09T09:36:40;18.90;99.90
59128;DHT22;44912;52.754;5.994;2022-09-09T09:39:06;19.10;99.90
59128;DHT22;44912;52.754;5.994;2022-09-09T09:41:34;19.20;99.90
59128;DHT22;44912;52.754;5.994;2022-09-09T09:44:01;19.40;99.90
59128;DHT22;44912;52.754;5.994;2022-09-09T09:46:27;19.40;99.90
59128;DHT22;44912;52.754;5.994;2022-09-09T09:48:58;19.40;99.90
59128;DHT22;44912;52.754;5.994;2022-09-09T09:51:25;19.30;99.90
59128;DHT22;44912;52.754;5.994;2022-09-09T09:53:51;19.30;99.90
59128;DHT22;44912;52.754;5.994;2022-09-09T09:56:26;19.20;99.90
59128;DHT22;44912;52.754;5.994;2022-09-09T09:58:53;19.10;99.90
59128;DHT22;44912;52.754;5.994;2022-09-09T10:01:25;19.00;99.90
59128;DHT22;44912;52.754;5.994;2022-09-09T10:04:20;19.00;99.90
59128;DHT22;44912;52.754;5.994;2022-09-09T10:06:48;18.90;99.90
59128;DHT22;44912;52.754;5.994;2022-09-09T10:09:32;18.80;99.90
59128;DHT22;44912;52.754;5.994;2022-09-09T10:12:05;18.70;99.90
59128;DHT22;44912;52.754;5.994;2022-09-09T10:14:55;18.60;99.90
59128;DHT22;44912;52.754;5.994;2022-09-09T10:17:34;18.60;99.90
59128;DHT22;44912;52.754;5.994;2022-09-09T10:22:35;18.70;99.90
59128;DHT22;44912;52.754;5.994;2022-09-09T10:30:18;18.70;99.90
59128;DHT22;44912;52.754;5.994;2022-09-09T10:32:49;18.70;99.90
59128;DHT22;44912;52.754;5.994;2022-09-09T10:38:48;18.80;99.90
59128;DHT22;44912;52.754;5.994;2022-09-09T10:43:49;18.70;99.90
59128;DHT22;44912;52.754;5.994;2022-09-09T10:46:31;18.60;99.90
59128;DHT22;44912;52.754;5.994;2022-09-09T10:49:17;18.50;99.90
59128;DHT22;44912;52.754;5.994;2022-09-09T10:52:06;18.50;99.90
59128;DHT22;44912;52.754;5.994;2022-09-09T10:55:06;18.40;99.90
59128;DHT22;44912;52.754;5.994;2022-09-09T10:57:47;18.30;99.90
59128;DHT22;44912;52.754;5.994;2022-09-09T11:00:17;18.30;99.90
59128;DHT22;44912;52.754;5.994;2022-09-09T11:02:51;18.40;99.90
59128;DHT22;44912;52.754;5.994;2022-09-09T11:05:21;18.50;99.90
59128;DHT22;44912;52.754;5.994;2022-09-09T11:07:59;18.70;99.90
59128;DHT22;44912;52.754;5.994;2022-09-09T11:10:34;18.80;99.90
59128;DHT22;44912;52.754;5.994;2022-09-09T11:13:17;19.00;99.90
59128;DHT22;44912;52.754;5.994;2022-09-09T11:15:46;19.10;99.90
59128;DHT22;44912;52.754;5.994;2022-09-09T11:18:21;19.10;99.90
59128;DHT22;44912;52.754;5.994;2022-09-09T11:20:53;19.10;99.90
59128;DHT22;44912;52.754;5.994;2022-09-09T11:23:44;19.30;99.90
59128;DHT22;44912;52.754;5.994;2022-09-09T11:26:17;19.50;99.90
59128;DHT22;44912;52.754;5.994;2022-09-09T11:29:05;19.80;99.90
59128;DHT22;44912;52.754;5.994;2022-09-09T11:31:54;19.90;99.90
59128;DHT22;44912;52.754;5.994;2022-09-09T11:34:45;20.00;99.90
59128;DHT22;44912;52.754;5.994;2022-09-09T11:37:44;20.00;99.90
59128;DHT22;44912;52.754;5.994;2022-09-09T11:40:20;19.90;99.90
59128;DHT22;44912;52.754;5.994;2022-09-09T11:42:48;19.80;99.90
59128;DHT22;44912;52.754;5.994;2022-09-09T11:45:24;19.70;99.90
59128;DHT22;44912;52.754;5.994;2022-09-09T11:47:53;19.50;99.90
59128;DHT22;44912;52.754;5.994;2022-09-09T11:52:46;19.40;99.90
59128;DHT22;44912;52.754;5.994;2022-09-09T11:55:30;19.40;99.90
59128;DHT22;44912;52.754;5.994;2022-09-09T12:00:41;19.30;99.90
59128;DHT22;44912;52.754;5.994;2022-09-09T12:03:41;19.20;99.90
59128;DHT22;44912;52.754;5.994;2022-09-09T12:06:32;19.10;99.90
59128;DHT22;44912;52.754;5.994;2022-09-09T12:09:19;19.00;99.90
59128;DHT22;44912;52.754;5.994;2022-09-09T12:11:46;19.00;99.90
59128;DHT22;44912;52.754;5.994;2022-09-09T12:19:40;19.10;99.90
59128;DHT22;44912;52.754;5.994;2022-09-09T12:25:00;19.50;99.90
59128;DHT22;44912;52.754;5.994;2022-09-09T12:27:40;19.60;99.90
59128;DHT22;44912;52.754;5.994;2022-09-09T12:30:12;19.60;99.90
59128;DHT22;44912;52.754;5.994;2022-09-09T12:32:40;19.70;99.90
59128;DHT22;44912;52.754;5.994;2022-09-09T12:35:20;19.70;99.90
59128;DHT22;44912;52.754;5.994;2022-09-09T12:37:56;19.70;99.90
59128;DHT22;44912;52.754;5.994;2022-09-09T12:40:26;19.70;99.90
59128;DHT22;44912;52.754;5.994;2022-09-09T12:42:52;19.50;99.90
59128;DHT22;44912;52.754;5.994;2022-09-09T12:45:22;19.60;99.90
59128;DHT22;44912;52.754;5.994;2022-09-09T12:48:03;19.60;99.90
59128;DHT22;44912;52.754;5.994;2022-09-09T12:50:37;19.70;99.90
59128;DHT22;44912;52.754;5.994;2022-09-09T12:53:08;19.80;99.90
59128;DHT22;44912;52.754;5.994;2022-09-09T12:55:37;20.10;99.90
59128;DHT22;44912;52.754;5.994;2022-09-09T12:58:04;20.50;99.90
59128;DHT22;44912;52.754;5.994;2022-09-09T13:00:32;20.60;99.90
59128;DHT22;44912;52.754;5.994;2022-09-09T13:03:00;20.60;99.90
59128;DHT22;44912;52.754;5.994;2022-09-09T13:05:38;20.60;99.90
59128;DHT22;44912;52.754;5.994;2022-09-09T13:08:06;20.70;99.90
59128;DHT22;44912;52.754;5.994;2022-09-09T13:10:36;20.80;99.90
59128;DHT22;44912;52.754;5.994;2022-09-09T13:13:14;20.80;99.90
59128;DHT22;44912;52.754;5.994;2022-09-09T13:15:49;20.70;99.90
59128;DHT22;44912;52.754;5.994;2022-09-09T13:18:16;20.50;99.90
59128;DHT22;44912;52.754;5.994;2022-09-09T13:20:48;20.40;99.90
59128;DHT22;44912;52.754;5.994;2022-09-09T13:23:18;20.50;99.90
59128;DHT22;44912;52.754;5.994;2022-09-09T13:25:56;20.70;99.90
59128;DHT22;44912;52.754;5.994;2022-09-09T13:28:24;20.90;99.90
59128;DHT22;44912;52.754;5.994;2022-09-09T13:31:01;21.00;99.90
59128;DHT22;44912;52.754;5.994;2022-09-09T13:33:33;21.00;99.90
59128;DHT22;44912;52.754;5.994;2022-09-09T13:38:29;21.20;99.90
59128;DHT22;44912;52.754;5.994;2022-09-09T13:41:02;21.10;99.90
59128;DHT22;44912;52.754;5.994;2022-09-09T13:43:31;21.00;99.90
59128;DHT22;44912;52.754;5.994;2022-09-09T13:46:02;20.90;99.90
59128;DHT22;44912;52.754;5.994;2022-09-09T13:48:28;20.70;99.90
59128;DHT22;44912;52.754;5.994;2022-09-09T13:51:03;20.60;99.90
59128;DHT22;44912;52.754;5.994;2022-09-09T13:53:32;20.50;99.90
59128;DHT22;44912;52.754;5.994;2022-09-09T13:55:58;20.50;99.90
59128;DHT22;44912;52.754;5.994;2022-09-09T13:58:25;20.60;99.90
59128;DHT22;44912;52.754;5.994;2022-09-09T14:00:55;20.70;99.90
59128;DHT22;44912;52.754;5.994;2022-09-09T14:03:20;20.70;99.90
59128;DHT22;44912;52.754;5.994;2022-09-09T14:05:46;20.60;99.90
59128;DHT22;44912;52.754;5.994;2022-09-09T14:08:21;20.50;99.90
59128;DHT22;44912;52.754;5.994;2022-09-09T14:10:47;20.30;99.90
59128;DHT22;44912;52.754;5.994;2022-09-09T14:13:13;20.10;99.90
59128;DHT22;44912;52.754;5.994;2022-09-09T14:15:40;20.00;99.90
59128;DHT22;44912;52.754;5.994;2022-09-09T14:18:05;19.90;99.90
59128;DHT22;44912;52.754;5.994;2022-09-09T14:20:31;19.70;99.90
59128;DHT22;44912;52.754;5.994;2022-09-09T14:22:57;19.50;99.90
59128;DHT22;44912;52.754;5.994;2022-09-09T14:25:23;19.30;99.90
59128;DHT22;44912;52.754;5.994;2022-09-09T14:27:49;19.00;99.90
59128;DHT22;44912;52.754;5.994;2022-09-09T14:30:16;18.90;99.90
59128;DHT22;44912;52.754;5.994;2022-09-09T14:32:42;18.90;99.90
59128;DHT22;44912;52.754;5.994;2022-09-09T14:35:07;18.90;99.90
59128;DHT22;44912;52.754;5.994;2022-09-09T14:37:33;19.00;99.90
59128;DHT22;44912;52.754;5.994;2022-09-09T14:39:59;19.00;99.90
59128;DHT22;44912;52.754;5.994;2022-09-09T14:42:24;19.00;99.90
59128;DHT22;44912;52.754;5.994;2022-09-09T14:44:51;19.10;99.90
59128;DHT22;44912;52.754;5.994;2022-09-09T14:47:16;19.30;99.90
59128;DHT22;44912;52.754;5.994;2022-09-09T14:49:42;19.50;99.90
59128;DHT22;44912;52.754;5.994;2022-09-09T14:52:08;19.70;99.90
59128;DHT22;44912;52.754;5.994;2022-09-09T14:54:34;19.80;99.90
59128;DHT22;44912;52.754;5.994;2022-09-09T14:57:00;19.90;99.90
59128;DHT22;44912;52.754;5.994;2022-09-09T14:59:25;19.90;99.90
59128;DHT22;44912;52.754;5.994;2022-09-09T15:01:52;20.00;99.90
59128;DHT22;44912;52.754;5.994;2022-09-09T15:04:18;20.00;99.90
59128;DHT22;44912;52.754;5.994;2022-09-09T15:06:43;19.90;99.90
59128;DHT22;44912;52.754;5.994;2022-09-09T15:09:12;19.80;99.90
59128;DHT22;44912;52.754;5.994;2022-09-09T15:11:38;19.80;99.90
59128;DHT22;44912;52.754;5.994;2022-09-09T15:14:08;19.70;99.90
59128;DHT22;44912;52.754;5.994;2022-09-09T15:16:34;19.70;99.90
59128;DHT22;44912;52.754;5.994;2022-09-09T15:19:01;19.60;99.90
59128;DHT22;44912;52.754;5.994;2022-09-09T15:21:29;19.50;99.90
59128;DHT22;44912;52.754;5.994;2022-09-09T15:23:56;19.50;99.90
59128;DHT22;44912;52.754;5.994;2022-09-09T15:26:22;19.40;99.90
59128;DHT22;44912;52.754;5.994;2022-09-09T15:28:48;19.40;99.90
59128;DHT22;44912;52.754;5.994;2022-09-09T15:31:20;19.40;99.90
59128;DHT22;44912;52.754;5.994;2022-09-09T15:33:54;19.40;99.90
59128;DHT22;44912;52.754;5.994;2022-09-09T15:36:27;19.40;99.90
59128;DHT22;44912;52.754;5.994;2022-09-09T15:38:54;19.50;99.90
59128;DHT22;44912;52.754;5.994;2022-09-09T15:41:20;19.50;99.90
59128;DHT22;44912;52.754;5.994;2022-09-09T15:43:48;19.50;99.90
59128;DHT22;44912;52.754;5.994;2022-09-09T15:48:50;19.50;99.90
59128;DHT22;44912;52.754;5.994;2022-09-09T15:51:16;19.60;99.90
59128;DHT22;44912;52.754;5.994;2022-09-09T15:53:41;19.70;99.90
59128;DHT22;44912;52.754;5.994;2022-09-09T15:56:08;19.70;99.90
59128;DHT22;44912;52.754;5.994;2022-09-09T15:58:34;19.70;99.90
59128;DHT22;44912;52.754;5.994;2022-09-09T16:01:08;19.60;99.90
59128;DHT22;44912;52.754;5.994;2022-09-09T16:03:36;19.50;99.90
59128;DHT22;44912;52.754;5.994;2022-09-09T16:06:03;19.40;99.90
59128;DHT22;44912;52.754;5.994;2022-09-09T16:08:41;19.30;99.90
59128;DHT22;44912;52.754;5.994;2022-09-09T16:11:13;19.30;99.90
59128;DHT22;44912;52.754;5.994;2022-09-09T16:13:43;19.20;99.90
59128;DHT22;44912;52.754;5.994;2022-09-09T16:16:10;19.10;99.90
59128;DHT22;44912;52.754;5.994;2022-09-09T16:18:39;19.10;99.90
59128;DHT22;44912;52.754;5.994;2022-09-09T16:21:05;19.10;99.90
59128;DHT22;44912;52.754;5.994;2022-09-09T16:23:32;19.10;99.90
59128;DHT22;44912;52.754;5.994;2022-09-09T16:25:57;19.10;99.90
59128;DHT22;44912;52.754;5.994;2022-09-09T16:28:23;19.10;99.90
59128;DHT22;44912;52.754;5.994;2022-09-09T16:30:49;19.00;99.90
59128;DHT22;44912;52.754;5.994;2022-09-09T16:33:16;19.00;99.90
59128;DHT22;44912;52.754;5.994;2022-09-09T16:35:42;19.00;99.90
59128;DHT22;44912;52.754;5.994;2022-09-09T16:38:08;19.00;99.90
59128;DHT22;44912;52.754;5.994;2022-09-09T16:40:34;19.00;99.90
59128;DHT22;44912;52.754;5.994;2022-09-09T16:43:00;18.90;99.90
59128;DHT22;44912;52.754;5.994;2022-09-09T16:45:26;18.90;99.90
59128;DHT22;44912;52.754;5.994;2022-09-09T16:47:52;18.90;99.90
59128;DHT22;44912;52.754;5.994;2022-09-09T16:50:18;18.90;99.90
59128;DHT22;44912;52.754;5.994;2022-09-09T16:52:43;18.90;99.90
59128;DHT22;44912;52.754;5.994;2022-09-09T16:55:09;18.90;99.90
59128;DHT22;44912;52.754;5.994;2022-09-09T16:57:35;18.90;99.90
59128;DHT22;44912;52.754;5.994;2022-09-09T17:00:01;18.90;99.90
59128;DHT22;44912;52.754;5.994;2022-09-09T17:02:28;19.00;99.90
59128;DHT22;44912;52.754;5.994;2022-09-09T17:04:54;18.90;99.90
59128;DHT22;44912;52.754;5.994;2022-09-09T17:07:19;18.90;99.90